sensor_id;sensor_type;location;lat;lon;timestamp;pressure;altitude;pressure_sealevel;temperature;humidity
17873;BME280;36318;42.620;23.338;2023-02-28T00:00:05;93330.13;;;6.21;100.00
17873;BME280;36318;42.620;23.338;2023-02-28T00:02:35;93323.88;;;6.25;100.00
17873;BME280;36318;42.620;23.338;2023-02-28T00:05:02;93316.34;;;6.22;100.00
17873;BME280;36318;42.620;23.338;2023-02-28T00:07:29;93320.09;;;6.30;100.00
17873;BME280;36318;42.620;23.338;2023-02-28T00:09:55;93318.63;;;6.26;100.00
17873;BME280;36318;42.620;23.338;2023-02-28T00:12:24;93323.78;;;6.26;100.00
17873;BME280;36318;42.620;23.338;2023-02-28T00:14:50;93326.25;;;6.28;100.00
17873;BME280;36318;42.620;23.338;2023-02-28T00:17:17;93330.56;;;6.27;100.00
17873;BME280;36318;42.620;23.338;2023-02-28T00:19:46;93314.13;;;6.30;100.00
17873;BME280;36318;42.620;23.338;2023-02-28T00:22:13;93330.88;;;6.37;100.00
17873;BME280;36318;42.620;23.338;2023-02-28T00:24:39;93334.19;;;6.39;100.00
17873;BME280;36318;42.620;23.338;2023-02-28T00:27:06;93329.19;;;6.36;100.00
17873;BME280;36318;42.620;23.338;2023-02-28T00:29:34;93327.16;;;6.41;100.00
17873;BME280;36318;42.620;23.338;2023-02-28T00:32:01;93326.25;;;6.42;100.00
17873;BME280;36318;42.620;23.338;2023-02-28T00:34:27;93334.00;;;6.42;100.00
17873;BME280;36318;42.620;23.338;2023-02-28T00:36:54;93337.41;;;6.42;100.00
17873;BME280;36318;42.620;23.338;2023-02-28T00:39:21;93328.84;;;6.42;100.00
17873;BME280;36318;42.620;23.338;2023-02-28T00:41:48;93323.50;;;6.45;100.00
17873;BME280;36318;42.620;23.338;2023-02-28T00:44:14;93331.13;;;6.46;100.00
17873;BME280;36318;42.620;23.338;2023-02-28T00:46:42;93317.88;;;6.38;100.00
17873;BME280;36318;42.620;23.338;2023-02-28T00:49:09;93319.84;;;6.35;100.00
17873;BME280;36318;42.620;23.338;2023-02-28T00:51:35;93319.06;;;6.33;100.00
17873;BME280;36318;42.620;23.338;2023-02-28T00:54:02;93322.03;;;6.27;100.00
17873;BME280;36318;42.620;23.338;2023-02-28T00:56:29;93328.00;;;6.27;100.00
17873;BME280;36318;42.620;23.338;2023-02-28T00:58:56;93324.44;;;6.30;100.00
17873;BME280;36318;42.620;23.338;2023-02-28T01:01:22;93323.03;;;6.38;100.00
17873;BME280;36318;42.620;23.338;2023-02-28T01:03:50;93324.69;;;6.39;100.00
17873;BME280;36318;42.620;23.338;2023-02-28T01:06:17;93326.53;;;6.37;100.00
17873;BME280;36318;42.620;23.338;2023-02-28T01:08:43;93324.97;;;6.35;100.00
17873;BME280;36318;42.620;23.338;2023-02-28T01:11:10;93325.44;;;6.27;100.00
17873;BME280;36318;42.620;23.338;2023-02-28T01:13:37;93326.91;;;6.17;100.00
17873;BME280;36318;42.620;23.338;2023-02-28T01:16:04;93320.19;;;6.15;100.00
17873;BME280;36318;42.620;23.338;2023-02-28T01:18:31;93325.88;;;6.06;100.00
17873;BME280;36318;42.620;23.338;2023-02-28T01:21:02;93321.28;;;5.96;100.00
17873;BME280;36318;42.620;23.338;2023-02-28T01:23:29;93320.75;;;5.91;100.00
17873;BME280;36318;42.620;23.338;2023-02-28T01:25:55;93322.84;;;5.85;100.00
17873;BME280;36318;42.620;23.338;2023-02-28T01:28:22;93327.91;;;5.86;100.00
17873;BME280;36318;42.620;23.338;2023-02-28T01:30:49;93318.53;;;5.85;100.00
17873;BME280;36318;42.620;23.338;2023-02-28T01:33:15;93310.78;;;5.85;100.00
17873;BME280;36318;42.620;23.338;2023-02-28T01:35:42;93325.47;;;5.83;100.00
17873;BME280;36318;42.620;23.338;2023-02-28T01:38:10;93334.22;;;5.81;100.00
17873;BME280;36318;42.620;23.338;2023-02-28T01:40:37;93320.69;;;5.77;100.00
17873;BME280;36318;42.620;23.338;2023-02-28T01:43:04;93327.13;;;5.84;100.00
17873;BME280;36318;42.620;23.338;2023-02-28T01:45:31;93326.06;;;5.88;100.00
17873;BME280;36318;42.620;23.338;2023-02-28T01:47:58;93331.94;;;5.90;100.00
17873;BME280;36318;42.620;23.338;2023-02-28T01:50:28;93327.53;;;5.92;100.00
17873;BME280;36318;42.620;23.338;2023-02-28T01:52:57;93334.63;;;5.89;100.00
17873;BME280;36318;42.620;23.338;2023-02-28T01:55:27;93333.97;;;5.85;100.00
17873;BME280;36318;42.620;23.338;2023-02-28T01:57:56;93333.63;;;5.91;100.00
17873;BME280;36318;42.620;23.338;2023-02-28T02:00:24;93335.63;;;6.00;100.00
17873;BME280;36318;42.620;23.338;2023-02-28T02:02:53;93330.22;;;6.05;100.00
17873;BME280;36318;42.620;23.338;2023-02-28T02:05:21;93331.88;;;6.06;100.00
17873;BME280;36318;42.620;23.338;2023-02-28T02:07:48;93323.97;;;6.09;100.00
17873;BME280;36318;42.620;23.338;2023-02-28T02:10:16;93329.84;;;6.11;100.00
17873;BME280;36318;42.620;23.338;2023-02-28T02:12:51;93319.75;;;6.08;100.00
17873;BME280;36318;42.620;23.338;2023-02-28T02:15:24;93318.16;;;6.06;100.00
17873;BME280;36318;42.620;23.338;2023-02-28T02:17:53;93322.22;;;6.10;100.00
17873;BME280;36318;42.620;23.338;2023-02-28T02:20:27;93321.50;;;6.08;100.00
17873;BME280;36318;42.620;23.338;2023-02-28T02:23:07;93324.78;;;5.95;100.00
17873;BME280;36318;42.620;23.338;2023-02-28T02:25:38;93317.59;;;6.00;100.00
17873;BME280;36318;42.620;23.338;2023-02-28T02:28:25;93302.81;;;6.04;100.00
17873;BME280;36318;42.620;23.338;2023-02-28T02:31:06;93316.81;;;6.00;100.00
17873;BME280;36318;42.620;23.338;2023-02-28T02:33:45;93313.91;;;5.90;100.00
17873;BME280;36318;42.620;23.338;2023-02-28T02:36:19;93306.84;;;5.94;100.00
17873;BME280;36318;42.620;23.338;2023-02-28T02:38:49;93317.22;;;5.92;100.00
17873;BME280;36318;42.620;23.338;2023-02-28T02:41:19;93327.28;;;5.81;100.00
17873;BME280;36318;42.620;23.338;2023-02-28T02:43:50;93326.19;;;5.71;100.00
17873;BME280;36318;42.620;23.338;2023-02-28T02:46:19;93329.78;;;5.69;100.00
17873;BME280;36318;42.620;23.338;2023-02-28T02:48:46;93330.50;;;5.71;100.00
17873;BME280;36318;42.620;23.338;2023-02-28T02:51:14;93325.44;;;5.69;100.00
17873;BME280;36318;42.620;23.338;2023-02-28T02:53:44;93325.28;;;5.72;100.00
17873;BME280;36318;42.620;23.338;2023-02-28T02:56:14;93330.03;;;5.64;100.00
17873;BME280;36318;42.620;23.338;2023-02-28T02:58:42;93333.81;;;5.59;100.00
17873;BME280;36318;42.620;23.338;2023-02-28T03:01:10;93342.44;;;5.58;100.00
17873;BME280;36318;42.620;23.338;2023-02-28T03:03:38;93347.34;;;5.62;100.00
17873;BME280;36318;42.620;23.338;2023-02-28T03:06:05;93346.84;;;5.56;100.00
17873;BME280;36318;42.620;23.338;2023-02-28T03:08:34;93353.28;;;5.63;100.00
17873;BME280;36318;42.620;23.338;2023-02-28T03:11:02;93361.28;;;5.58;100.00
17873;BME280;36318;42.620;23.338;2023-02-28T03:13:36;93363.13;;;5.56;100.00
17873;BME280;36318;42.620;23.338;2023-02-28T03:18:49;93363.91;;;5.72;100.00
17873;BME280;36318;42.620;23.338;2023-02-28T03:21:20;93362.72;;;5.78;100.00
17873;BME280;36318;42.620;23.338;2023-02-28T03:23:52;93366.69;;;5.83;100.00
17873;BME280;36318;42.620;23.338;2023-02-28T03:26:23;93370.75;;;5.87;100.00
17873;BME280;36318;42.620;23.338;2023-02-28T03:28:53;93371.19;;;5.80;100.00
17873;BME280;36318;42.620;23.338;2023-02-28T03:31:25;93376.78;;;5.72;100.00
17873;BME280;36318;42.620;23.338;2023-02-28T03:33:55;93379.03;;;5.63;100.00
17873;BME280;36318;42.620;23.338;2023-02-28T03:36:24;93378.56;;;5.56;100.00
17873;BME280;36318;42.620;23.338;2023-02-28T03:38:53;93378.19;;;5.48;100.00
17873;BME280;36318;42.620;23.338;2023-02-28T03:41:22;93305.38;;;5.01;100.00
17873;BME280;36318;42.620;23.338;2023-02-28T03:43:50;93387.19;;;5.55;100.00
17873;BME280;36318;42.620;23.338;2023-02-28T03:46:20;93376.63;;;5.60;100.00
17873;BME280;36318;42.620;23.338;2023-02-28T03:48:51;93374.88;;;5.60;100.00
17873;BME280;36318;42.620;23.338;2023-02-28T03:51:21;93381.16;;;5.56;100.00
17873;BME280;36318;42.620;23.338;2023-02-28T03:53:50;93378.81;;;5.52;100.00
17873;BME280;36318;42.620;23.338;2023-02-28T03:56:19;93379.66;;;5.52;100.00
17873;BME280;36318;42.620;23.338;2023-02-28T03:58:49;93382.75;;;5.43;100.00
17873;BME280;36318;42.620;23.338;2023-02-28T04:01:20;93379.78;;;5.35;100.00
17873;BME280;36318;42.620;23.338;2023-02-28T04:03:49;93386.25;;;5.42;100.00
17873;BME280;36318;42.620;23.338;2023-02-28T04:06:16;93377.41;;;5.46;100.00
17873;BME280;36318;42.620;23.338;2023-02-28T04:08:43;93378.06;;;5.50;100.00
17873;BME280;36318;42.620;23.338;2023-02-28T04:11:13;93380.91;;;5.45;100.00
17873;BME280;36318;42.620;23.338;2023-02-28T04:13:42;93375.66;;;5.32;100.00
17873;BME280;36318;42.620;23.338;2023-02-28T04:16:11;93387.91;;;5.43;100.00
17873;BME280;36318;42.620;23.338;2023-02-28T04:18:38;93385.66;;;5.37;100.00
17873;BME280;36318;42.620;23.338;2023-02-28T04:21:04;93378.78;;;5.37;100.00
17873;BME280;36318;42.620;23.338;2023-02-28T04:23:31;93378.41;;;5.43;100.00
17873;BME280;36318;42.620;23.338;2023-02-28T04:25:58;93375.78;;;5.45;100.00
17873;BME280;36318;42.620;23.338;2023-02-28T04:28:25;93377.69;;;5.41;100.00
17873;BME280;36318;42.620;23.338;2023-02-28T04:30:55;93378.34;;;5.45;100.00
17873;BME280;36318;42.620;23.338;2023-02-28T04:33:23;93376.34;;;5.50;100.00
17873;BME280;36318;42.620;23.338;2023-02-28T04:35:57;93377.06;;;5.52;100.00
17873;BME280;36318;42.620;23.338;2023-02-28T04:38:24;93381.22;;;5.55;100.00
17873;BME280;36318;42.620;23.338;2023-02-28T04:40:50;93386.28;;;5.56;100.00
17873;BME280;36318;42.620;23.338;2023-02-28T04:43:17;93388.13;;;5.54;100.00
17873;BME280;36318;42.620;23.338;2023-02-28T04:45:43;93387.38;;;5.52;100.00
17873;BME280;36318;42.620;23.338;2023-02-28T04:48:10;93391.03;;;5.48;100.00
17873;BME280;36318;42.620;23.338;2023-02-28T04:50:38;93397.03;;;5.49;100.00
17873;BME280;36318;42.620;23.338;2023-02-28T04:53:04;93400.69;;;5.44;100.00
17873;BME280;36318;42.620;23.338;2023-02-28T04:55:31;93404.09;;;5.45;100.00
17873;BME280;36318;42.620;23.338;2023-02-28T04:57:57;93405.81;;;5.44;100.00
17873;BME280;36318;42.620;23.338;2023-02-28T05:00:24;93406.75;;;5.28;100.00
17873;BME280;36318;42.620;23.338;2023-02-28T05:02:50;93419.22;;;5.20;100.00
17873;BME280;36318;42.620;23.338;2023-02-28T05:05:17;93408.50;;;5.27;100.00
17873;BME280;36318;42.620;23.338;2023-02-28T05:07:46;93414.66;;;5.09;100.00
17873;BME280;36318;42.620;23.338;2023-02-28T05:10:12;93409.94;;;5.02;100.00
17873;BME280;36318;42.620;23.338;2023-02-28T05:12:39;93406.94;;;5.09;100.00
17873;BME280;36318;42.620;23.338;2023-02-28T05:15:06;93411.34;;;5.07;100.00
17873;BME280;36318;42.620;23.338;2023-02-28T05:17:32;93411.75;;;5.15;100.00
17873;BME280;36318;42.620;23.338;2023-02-28T05:19:59;93412.50;;;5.17;100.00
17873;BME280;36318;42.620;23.338;2023-02-28T05:22:25;93411.91;;;5.28;100.00
17873;BME280;36318;42.620;23.338;2023-02-28T05:24:53;93411.75;;;5.31;100.00
17873;BME280;36318;42.620;23.338;2023-02-28T05:27:20;93420.56;;;5.27;100.00
17873;BME280;36318;42.620;23.338;2023-02-28T05:29:47;93422.47;;;5.23;100.00
17873;BME280;36318;42.620;23.338;2023-02-28T05:32:14;93422.31;;;5.11;100.00
17873;BME280;36318;42.620;23.338;2023-02-28T05:34:41;93428.19;;;5.28;100.00
17873;BME280;36318;42.620;23.338;2023-02-28T05:37:10;93425.50;;;5.30;100.00
17873;BME280;36318;42.620;23.338;2023-02-28T05:39:37;93431.41;;;5.32;100.00
17873;BME280;36318;42.620;23.338;2023-02-28T05:42:05;93438.47;;;5.28;100.00
17873;BME280;36318;42.620;23.338;2023-02-28T05:44:32;93437.88;;;5.39;100.00
17873;BME280;36318;42.620;23.338;2023-02-28T05:46:59;93443.63;;;5.28;100.00
17873;BME280;36318;42.620;23.338;2023-02-28T05:49:25;93440.63;;;5.36;100.00
17873;BME280;36318;42.620;23.338;2023-02-28T05:51:52;93447.34;;;5.38;100.00
17873;BME280;36318;42.620;23.338;2023-02-28T05:54:18;93442.53;;;5.48;100.00
17873;BME280;36318;42.620;23.338;2023-02-28T05:56:45;93445.34;;;5.59;100.00
17873;BME280;36318;42.620;23.338;2023-02-28T05:59:13;93436.19;;;5.69;100.00
17873;BME280;36318;42.620;23.338;2023-02-28T06:01:40;93439.47;;;5.71;100.00
17873;BME280;36318;42.620;23.338;2023-02-28T06:04:07;93436.19;;;5.69;100.00
17873;BME280;36318;42.620;23.338;2023-02-28T06:06:34;93437.19;;;5.67;100.00
17873;BME280;36318;42.620;23.338;2023-02-28T06:09:02;93440.31;;;5.72;100.00
17873;BME280;36318;42.620;23.338;2023-02-28T06:11:29;93440.06;;;5.76;100.00
17873;BME280;36318;42.620;23.338;2023-02-28T06:13:56;93435.16;;;5.87;100.00
17873;BME280;36318;42.620;23.338;2023-02-28T06:16:25;93439.56;;;5.85;100.00
17873;BME280;36318;42.620;23.338;2023-02-28T06:18:52;93448.13;;;5.86;100.00
17873;BME280;36318;42.620;23.338;2023-02-28T06:21:20;93440.31;;;5.87;100.00
17873;BME280;36318;42.620;23.338;2023-02-28T06:23:47;93452.84;;;5.93;100.00
17873;BME280;36318;42.620;23.338;2023-02-28T06:26:13;93439.16;;;5.77;100.00
17873;BME280;36318;42.620;23.338;2023-02-28T06:28:40;93443.81;;;5.86;100.00
17873;BME280;36318;42.620;23.338;2023-02-28T06:31:07;93445.91;;;6.10;100.00
17873;BME280;36318;42.620;23.338;2023-02-28T06:33:35;93452.16;;;6.20;100.00
17873;BME280;36318;42.620;23.338;2023-02-28T06:36:02;93442.16;;;5.85;100.00
17873;BME280;36318;42.620;23.338;2023-02-28T06:38:29;93460.56;;;5.93;100.00
17873;BME280;36318;42.620;23.338;2023-02-28T06:40:56;93451.59;;;6.15;100.00
17873;BME280;36318;42.620;23.338;2023-02-28T06:43:23;93448.88;;;6.32;100.00
17873;BME280;36318;42.620;23.338;2023-02-28T06:45:50;93452.88;;;6.51;100.00
17873;BME280;36318;42.620;23.338;2023-02-28T06:48:16;93453.41;;;6.71;100.00
17873;BME280;36318;42.620;23.338;2023-02-28T06:50:45;93460.53;;;6.81;100.00
17873;BME280;36318;42.620;23.338;2023-02-28T06:53:12;93453.72;;;6.94;100.00
17873;BME280;36318;42.620;23.338;2023-02-28T06:55:38;93456.47;;;7.05;100.00
17873;BME280;36318;42.620;23.338;2023-02-28T06:58:05;93463.19;;;7.08;100.00
17873;BME280;36318;42.620;23.338;2023-02-28T07:00:39;93466.75;;;7.19;100.00
17873;BME280;36318;42.620;23.338;2023-02-28T07:03:06;93463.72;;;7.27;100.00
17873;BME280;36318;42.620;23.338;2023-02-28T07:05:34;93466.94;;;7.16;100.00
17873;BME280;36318;42.620;23.338;2023-02-28T07:08:02;93463.91;;;7.24;100.00
17873;BME280;36318;42.620;23.338;2023-02-28T07:10:28;93468.84;;;7.41;100.00
17873;BME280;36318;42.620;23.338;2023-02-28T07:12:55;93463.00;;;7.52;100.00
17873;BME280;36318;42.620;23.338;2023-02-28T07:15:22;93461.31;;;7.65;100.00
17873;BME280;36318;42.620;23.338;2023-02-28T07:17:48;93453.81;;;7.74;100.00
17873;BME280;36318;42.620;23.338;2023-02-28T07:20:15;93463.63;;;7.82;100.00
17873;BME280;36318;42.620;23.338;2023-02-28T07:22:42;93467.28;;;7.92;100.00
17873;BME280;36318;42.620;23.338;2023-02-28T07:25:10;93468.75;;;7.96;100.00
17873;BME280;36318;42.620;23.338;2023-02-28T07:27:36;93473.16;;;8.08;100.00
17873;BME280;36318;42.620;23.338;2023-02-28T07:30:03;93475.44;;;8.25;100.00
17873;BME280;36318;42.620;23.338;2023-02-28T07:32:30;93461.25;;;8.45;100.00
17873;BME280;36318;42.620;23.338;2023-02-28T07:34:57;93463.31;;;8.65;100.00
17873;BME280;36318;42.620;23.338;2023-02-28T07:37:23;93463.13;;;8.81;100.00
17873;BME280;36318;42.620;23.338;2023-02-28T07:39:50;93469.09;;;9.07;100.00
17873;BME280;36318;42.620;23.338;2023-02-28T07:42:18;93481.66;;;9.00;100.00
17873;BME280;36318;42.620;23.338;2023-02-28T07:44:44;93481.25;;;8.93;100.00
17873;BME280;36318;42.620;23.338;2023-02-28T07:47:11;93476.94;;;9.30;100.00
17873;BME280;36318;42.620;23.338;2023-02-28T07:49:38;93483.75;;;9.56;100.00
17873;BME280;36318;42.620;23.338;2023-02-28T07:52:05;93480.59;;;9.64;100.00
17873;BME280;36318;42.620;23.338;2023-02-28T07:54:32;93481.44;;;9.52;100.00
17873;BME280;36318;42.620;23.338;2023-02-28T07:56:59;93484.66;;;9.55;100.00
17873;BME280;36318;42.620;23.338;2023-02-28T07:59:27;93475.81;;;9.34;100.00
17873;BME280;36318;42.620;23.338;2023-02-28T08:01:54;93472.63;;;9.18;100.00
17873;BME280;36318;42.620;23.338;2023-02-28T08:04:20;93484.06;;;9.39;100.00
17873;BME280;36318;42.620;23.338;2023-02-28T08:06:47;93477.78;;;9.31;100.00
17873;BME280;36318;42.620;23.338;2023-02-28T08:09:13;93480.44;;;9.42;100.00
17873;BME280;36318;42.620;23.338;2023-02-28T08:11:40;93483.66;;;9.33;100.00
17873;BME280;36318;42.620;23.338;2023-02-28T08:14:07;93478.81;;;9.28;100.00
17873;BME280;36318;42.620;23.338;2023-02-28T08:16:35;93473.16;;;9.59;100.00
17873;BME280;36318;42.620;23.338;2023-02-28T08:19:02;93477.38;;;9.60;100.00
17873;BME280;36318;42.620;23.338;2023-02-28T08:21:28;93474.59;;;9.63;100.00
17873;BME280;36318;42.620;23.338;2023-02-28T08:23:55;93475.47;;;9.51;100.00
17873;BME280;36318;42.620;23.338;2023-02-28T08:26:22;93487.09;;;9.46;100.00
17873;BME280;36318;42.620;23.338;2023-02-28T08:28:49;93483.44;;;9.48;100.00
17873;BME280;36318;42.620;23.338;2023-02-28T08:31:16;93476.25;;;9.65;100.00
17873;BME280;36318;42.620;23.338;2023-02-28T08:33:44;93476.84;;;9.68;100.00
17873;BME280;36318;42.620;23.338;2023-02-28T08:36:12;93481.03;;;9.82;100.00
17873;BME280;36318;42.620;23.338;2023-02-28T08:38:38;93483.41;;;9.97;100.00
17873;BME280;36318;42.620;23.338;2023-02-28T08:41:06;93489.88;;;10.15;100.00
17873;BME280;36318;42.620;23.338;2023-02-28T08:43:34;93485.78;;;10.11;100.00
17873;BME280;36318;42.620;23.338;2023-02-28T08:46:01;93487.78;;;10.20;100.00
17873;BME280;36318;42.620;23.338;2023-02-28T08:48:28;93481.25;;;10.15;100.00
17873;BME280;36318;42.620;23.338;2023-02-28T08:50:56;93493.03;;;9.95;100.00
17873;BME280;36318;42.620;23.338;2023-02-28T08:53:23;93491.69;;;9.90;100.00
17873;BME280;36318;42.620;23.338;2023-02-28T08:55:57;93504.94;;;9.98;100.00
17873;BME280;36318;42.620;23.338;2023-02-28T08:58:23;93509.84;;;9.90;100.00
17873;BME280;36318;42.620;23.338;2023-02-28T09:00:50;93508.72;;;9.94;100.00
17873;BME280;36318;42.620;23.338;2023-02-28T09:03:17;93508.91;;;9.91;100.00
17873;BME280;36318;42.620;23.338;2023-02-28T09:05:51;93506.81;;;9.96;100.00
17873;BME280;36318;42.620;23.338;2023-02-28T09:08:19;93516.34;;;10.08;100.00
17873;BME280;36318;42.620;23.338;2023-02-28T09:10:45;93515.72;;;10.04;100.00
17873;BME280;36318;42.620;23.338;2023-02-28T09:13:12;93513.22;;;10.15;100.00
17873;BME280;36318;42.620;23.338;2023-02-28T09:15:39;93514.53;;;10.08;100.00
17873;BME280;36318;42.620;23.338;2023-02-28T09:18:05;93510.22;;;9.73;100.00
17873;BME280;36318;42.620;23.338;2023-02-28T09:20:32;93513.81;;;9.83;100.00
17873;BME280;36318;42.620;23.338;2023-02-28T09:22:59;93508.41;;;9.86;100.00
17873;BME280;36318;42.620;23.338;2023-02-28T09:25:26;93510.94;;;9.75;100.00
17873;BME280;36318;42.620;23.338;2023-02-28T09:27:53;93512.81;;;9.73;100.00
17873;BME280;36318;42.620;23.338;2023-02-28T09:30:20;93512.28;;;9.80;100.00
17873;BME280;36318;42.620;23.338;2023-02-28T09:32:46;93509.56;;;9.82;100.00
17873;BME280;36318;42.620;23.338;2023-02-28T09:35:17;93515.25;;;9.87;100.00
17873;BME280;36318;42.620;23.338;2023-02-28T09:37:43;93504.50;;;10.04;100.00
17873;BME280;36318;42.620;23.338;2023-02-28T09:40:11;93505.75;;;10.11;100.00
17873;BME280;36318;42.620;23.338;2023-02-28T09:42:39;93506.38;;;10.02;100.00
17873;BME280;36318;42.620;23.338;2023-02-28T09:45:21;93507.13;;;10.28;100.00
17873;BME280;36318;42.620;23.338;2023-02-28T09:47:48;93504.41;;;10.05;100.00
17873;BME280;36318;42.620;23.338;2023-02-28T09:50:17;93504.88;;;10.23;100.00
17873;BME280;36318;42.620;23.338;2023-02-28T09:52:47;93501.16;;;10.38;100.00
17873;BME280;36318;42.620;23.338;2023-02-28T09:55:18;93510.34;;;10.31;100.00
17873;BME280;36318;42.620;23.338;2023-02-28T09:57:47;93507.00;;;10.53;100.00
17873;BME280;36318;42.620;23.338;2023-02-28T10:00:18;93506.38;;;10.49;100.00
17873;BME280;36318;42.620;23.338;2023-02-28T10:02:47;93503.75;;;10.38;100.00
17873;BME280;36318;42.620;23.338;2023-02-28T10:05:15;93501.97;;;10.39;100.00
17873;BME280;36318;42.620;23.338;2023-02-28T10:07:49;93496.78;;;10.39;100.00
17873;BME280;36318;42.620;23.338;2023-02-28T10:10:21;93497.78;;;10.49;100.00
17873;BME280;36318;42.620;23.338;2023-02-28T10:12:51;93493.66;;;10.57;100.00
17873;BME280;36318;42.620;23.338;2023-02-28T10:15:19;93495.91;;;10.51;100.00
17873;BME280;36318;42.620;23.338;2023-02-28T10:17:48;93491.88;;;10.47;100.00
17873;BME280;36318;42.620;23.338;2023-02-28T10:20:19;93492.25;;;10.53;100.00
17873;BME280;36318;42.620;23.338;2023-02-28T10:22:50;93485.69;;;10.71;100.00
17873;BME280;36318;42.620;23.338;2023-02-28T10:25:19;93493.94;;;10.65;100.00
17873;BME280;36318;42.620;23.338;2023-02-28T10:27:45;93491.44;;;10.53;100.00
17873;BME280;36318;42.620;23.338;2023-02-28T10:30:14;93480.91;;;11.00;100.00
17873;BME280;36318;42.620;23.338;2023-02-28T10:32:41;93473.72;;;11.59;100.00
17873;BME280;36318;42.620;23.338;2023-02-28T10:35:15;93476.56;;;11.45;100.00
17873;BME280;36318;42.620;23.338;2023-02-28T10:37:42;93466.63;;;11.72;100.00
17873;BME280;36318;42.620;23.338;2023-02-28T10:40:25;93479.25;;;11.55;100.00
17873;BME280;36318;42.620;23.338;2023-02-28T10:42:56;93465.34;;;12.10;100.00
17873;BME280;36318;42.620;23.338;2023-02-28T10:45:24;93469.28;;;12.04;100.00
17873;BME280;36318;42.620;23.338;2023-02-28T10:47:52;93462.38;;;11.71;100.00
17873;BME280;36318;42.620;23.338;2023-02-28T10:53:07;93456.44;;;11.58;100.00
17873;BME280;36318;42.620;23.338;2023-02-28T10:55:35;93450.22;;;11.16;100.00
17873;BME280;36318;42.620;23.338;2023-02-28T10:58:01;93448.50;;;11.93;100.00
17873;BME280;36318;42.620;23.338;2023-02-28T11:00:32;93444.22;;;12.55;100.00
17873;BME280;36318;42.620;23.338;2023-02-28T11:02:59;93452.88;;;12.56;100.00
17873;BME280;36318;42.620;23.338;2023-02-28T11:05:27;93440.31;;;12.29;100.00
17873;BME280;36318;42.620;23.338;2023-02-28T11:07:54;93442.56;;;12.75;100.00
17873;BME280;36318;42.620;23.338;2023-02-28T11:10:22;93439.13;;;12.02;100.00
17873;BME280;36318;42.620;23.338;2023-02-28T11:12:50;93435.66;;;12.65;100.00
17873;BME280;36318;42.620;23.338;2023-02-28T11:15:21;93447.41;;;12.59;100.00
17873;BME280;36318;42.620;23.338;2023-02-28T11:17:54;93433.53;;;12.79;100.00
17873;BME280;36318;42.620;23.338;2023-02-28T11:20:21;93431.06;;;12.57;100.00
17873;BME280;36318;42.620;23.338;2023-02-28T11:22:49;93435.13;;;12.50;100.00
17873;BME280;36318;42.620;23.338;2023-02-28T11:25:19;93433.25;;;12.20;100.00
17873;BME280;36318;42.620;23.338;2023-02-28T11:27:48;93425.94;;;11.82;100.00
17873;BME280;36318;42.620;23.338;2023-02-28T11:33:23;93425.50;;;11.33;100.00
17873;BME280;36318;42.620;23.338;2023-02-28T11:35:50;93426.78;;;11.83;100.00
17873;BME280;36318;42.620;23.338;2023-02-28T11:38:18;93421.03;;;11.46;100.00
17873;BME280;36318;42.620;23.338;2023-02-28T11:40:46;93415.00;;;11.46;100.00
17873;BME280;36318;42.620;23.338;2023-02-28T11:43:21;93412.72;;;11.63;100.00
17873;BME280;36318;42.620;23.338;2023-02-28T11:46:00;93416.81;;;11.88;100.00
17873;BME280;36318;42.620;23.338;2023-02-28T11:48:32;93415.88;;;12.41;100.00
17873;BME280;36318;42.620;23.338;2023-02-28T11:51:06;93414.84;;;11.80;100.00
17873;BME280;36318;42.620;23.338;2023-02-28T11:53:46;93409.56;;;12.03;100.00
17873;BME280;36318;42.620;23.338;2023-02-28T11:56:18;93402.84;;;11.46;100.00
17873;BME280;36318;42.620;23.338;2023-02-28T11:58:49;93404.00;;;11.53;100.00
17873;BME280;36318;42.620;23.338;2023-02-28T12:04:10;93408.25;;;12.08;100.00
17873;BME280;36318;42.620;23.338;2023-02-28T12:06:43;93415.94;;;11.98;100.00
17873;BME280;36318;42.620;23.338;2023-02-28T12:09:27;93411.09;;;11.62;100.00
17873;BME280;36318;42.620;23.338;2023-02-28T12:11:58;93399.59;;;11.65;100.00
17873;BME280;36318;42.620;23.338;2023-02-28T12:14:46;93397.88;;;11.54;100.00
17873;BME280;36318;42.620;23.338;2023-02-28T12:17:20;93401.63;;;11.50;100.00
17873;BME280;36318;42.620;23.338;2023-02-28T12:19:51;93398.50;;;11.02;100.00
17873;BME280;36318;42.620;23.338;2023-02-28T12:22:27;93392.34;;;11.03;100.00
17873;BME280;36318;42.620;23.338;2023-02-28T12:25:00;93388.59;;;11.07;100.00
17873;BME280;36318;42.620;23.338;2023-02-28T12:27:37;93399.66;;;11.20;100.00
17873;BME280;36318;42.620;23.338;2023-02-28T12:30:08;93394.56;;;11.41;100.00
17873;BME280;36318;42.620;23.338;2023-02-28T12:32:40;93392.06;;;11.62;100.00
17873;BME280;36318;42.620;23.338;2023-02-28T12:35:12;93398.09;;;11.51;100.00
17873;BME280;36318;42.620;23.338;2023-02-28T12:37:40;93394.91;;;11.70;100.00
17873;BME280;36318;42.620;23.338;2023-02-28T12:40:10;93399.13;;;11.71;100.00
17873;BME280;36318;42.620;23.338;2023-02-28T12:42:39;93394.44;;;11.43;100.00
17873;BME280;36318;42.620;23.338;2023-02-28T12:45:08;93393.69;;;11.52;100.00
17873;BME280;36318;42.620;23.338;2023-02-28T12:47:36;93396.19;;;11.53;100.00
17873;BME280;36318;42.620;23.338;2023-02-28T12:50:05;93393.16;;;11.48;100.00
17873;BME280;36318;42.620;23.338;2023-02-28T12:52:37;93388.19;;;11.45;100.00
17873;BME280;36318;42.620;23.338;2023-02-28T12:55:07;93391.22;;;11.61;100.00
17873;BME280;36318;42.620;23.338;2023-02-28T12:57:39;93390.38;;;11.61;100.00
17873;BME280;36318;42.620;23.338;2023-02-28T13:00:10;93396.41;;;11.83;100.00
17873;BME280;36318;42.620;23.338;2023-02-28T13:05:24;93387.63;;;12.16;100.00
17873;BME280;36318;42.620;23.338;2023-02-28T13:10:41;93392.78;;;11.41;100.00